Time;durP1;ratioP1;P1;durP2;ratioP2;P2;SDS_P1;SDS_P2;PMS_P1;PMS_P2;Temp;Humidity;BMP_temperature;BMP_pressure;BME280_temperature;BME280_humidity;BME280_pressure;Samples;Min_cycle;Max_cycle;Signal;HPM_P1;HPM_P2
2023/04/13 00:01:00;;;;;;;14.47;1.90;;;8.30;99.90;;;;;;5046645;28;20257;-69
2023/04/13 00:03:29;;;;;;;17.53;2.33;;;;;;;;;;5040078;28;20174;-69
2023/04/13 00:05:55;;;;;;;18.67;2.40;;;8.20;99.90;;;;;;5042953;28;20692;-68
2023/04/13 00:08:21;;;;;;;11.27;1.83;;;8.20;99.90;;;;;;5049280;28;20268;-69
2023/04/13 00:10:47;;;;;;;15.00;2.33;;;8.40;99.90;;;;;;5048412;28;20177;-69
2023/04/13 00:13:13;;;;;;;19.67;2.43;;;8.10;99.90;;;;;;5044760;28;20207;-69
2023/04/13 00:15:42;;;;;;;12.60;2.17;;;8.40;99.90;;;;;;5048760;28;20181;-68
2023/04/13 00:18:09;;;;;;;27.27;2.50;;;8.20;99.90;;;;;;5049468;28;20248;-68
2023/04/13 00:20:35;;;;;;;13.03;2.60;;;;;;;;;;5050736;28;20260;-68
2023/04/13 00:23:02;;;;;;;17.37;2.03;;;8.20;99.90;;;;;;5048936;28;20181;-68
2023/04/13 00:25:28;;;;;;;11.17;2.30;;;8.00;99.90;;;;;;5051282;28;20208;-68
2023/04/13 00:27:54;;;;;;;14.77;1.90;;;;;;;;;;5050380;28;20204;-68
2023/04/13 00:30:20;;;;;;;18.57;2.80;;;8.10;99.90;;;;;;5050267;28;20636;-69
2023/04/13 00:32:47;;;;;;;15.30;1.90;;;8.10;99.90;;;;;;5042315;28;20264;-69
2023/04/13 00:35:18;;;;;;;18.50;2.33;;;8.10;99.90;;;;;;5047557;28;20689;-68
2023/04/13 00:37:46;;;;;;;11.57;2.20;;;7.90;99.90;;;;;;5048201;28;20217;-68
2023/04/13 00:40:15;;;;;;;10.87;2.20;;;8.10;99.90;;;;;;5049769;28;20247;-68
2023/04/13 00:42:48;;;;;;;19.77;2.60;;;8.10;99.90;;;;;;5046607;28;20192;-68
2023/04/13 00:45:16;;;;;;;13.67;2.30;;;8.10;99.90;;;;;;5050917;28;20576;-68
2023/04/13 00:47:47;;;;;;;11.63;2.00;;;8.00;99.90;;;;;;5050336;28;20643;-69
2023/04/13 00:50:15;;;;;;;18.33;2.17;;;8.10;99.90;;;;;;5049324;28;20651;-69
2023/04/13 00:52:41;;;;;;;19.73;2.40;;;7.80;99.90;;;;;;5050020;28;20344;-69
2023/04/13 00:55:07;;;;;;;20.43;2.47;;;8.00;99.90;;;;;;5050018;28;20185;-69
2023/04/13 00:57:34;;;;;;;21.57;2.27;;;8.10;99.90;;;;;;5050042;28;20746;-69
2023/04/13 01:00:05;;;;;;;20.30;2.67;;;8.00;99.90;;;;;;5050178;28;20178;-67
2023/04/13 01:02:31;;;;;;;16.47;2.17;;;8.10;99.90;;;;;;5045371;28;20191;-67
2023/04/13 01:04:57;;;;;;;12.80;2.17;;;8.20;99.90;;;;;;5050237;28;20227;-69
2023/04/13 01:07:36;;;;;;;26.10;2.63;;;8.00;99.90;;;;;;5050363;28;20618;-68
2023/04/13 01:10:09;;;;;;;20.70;2.90;;;7.90;99.90;;;;;;5050120;28;20218;-68
2023/04/13 01:12:59;;;;;;;8.67;1.93;;;8.00;99.90;;;;;;5067302;28;20193;-68
2023/04/13 01:15:27;;;;;;;10.27;2.13;;;8.00;99.90;;;;;;5048977;28;20205;-68
2023/04/13 01:18:08;;;;;;;15.13;2.57;;;8.00;99.90;;;;;;5047604;28;20216;-68
2023/04/13 01:20:36;;;;;;;17.57;2.70;;;8.00;99.90;;;;;;5044324;28;20208;-68
2023/04/13 01:23:08;;;;;;;20.57;2.10;;;7.90;99.90;;;;;;5049944;28;20177;-68
2023/04/13 01:25:49;;;;;;;18.63;2.40;;;7.70;99.90;;;;;;5047577;28;20628;-68
2023/04/13 01:28:17;;;;;;;10.87;1.90;;;8.00;99.90;;;;;;5043097;28;20173;-68
2023/04/13 01:30:44;;;;;;;9.00;1.80;;;8.00;99.90;;;;;;5050147;28;20602;-67
2023/04/13 01:33:11;;;;;;;11.30;2.03;;;8.00;99.90;;;;;;5040874;28;20599;-67
2023/04/13 01:35:38;;;;;;;18.67;2.93;;;7.90;99.90;;;;;;5049185;28;20548;-68
2023/04/13 01:38:05;;;;;;;12.30;1.63;;;7.80;99.90;;;;;;5044094;28;20688;-67
2023/04/13 01:40:33;;;;;;;12.87;1.77;;;7.90;99.90;;;;;;5042450;28;21701;-67
2023/04/13 01:42:59;;;;;;;10.97;2.17;;;;;;;;;;5047585;28;20578;-68
2023/04/13 01:45:27;;;;;;;18.67;1.93;;;7.90;99.90;;;;;;5049914;28;20173;-67
2023/04/13 01:48:13;;;;;;;10.43;2.20;;;8.00;99.90;;;;;;5047252;28;20181;-66
2023/04/13 01:50:43;;;;;;;11.37;2.40;;;8.00;99.90;;;;;;5047788;28;20562;-67
2023/04/13 01:53:15;;;;;;;12.80;1.80;;;7.80;99.90;;;;;;5049425;28;20173;-67
2023/04/13 01:55:42;;;;;;;13.73;2.10;;;7.80;99.90;;;;;;5049724;28;20181;-67
2023/04/13 01:58:10;;;;;;;8.87;1.47;;;7.80;99.90;;;;;;5048007;28;20229;-67
2023/04/13 02:00:36;;;;;;;10.13;1.80;;;7.80;99.90;;;;;;5047961;28;21169;-67
2023/04/13 02:03:07;;;;;;;22.87;2.73;;;8.10;99.90;;;;;;5047725;28;20224;-68
2023/04/13 02:05:35;;;;;;;13.43;1.90;;;7.80;99.90;;;;;;5041956;28;20177;-67
2023/04/13 02:08:05;;;;;;;13.57;1.83;;;7.90;99.90;;;;;;5048079;28;20185;-68
2023/04/13 02:10:33;;;;;;;13.93;2.90;;;8.10;99.90;;;;;;5042477;28;20211;-68
2023/04/13 02:12:59;;;;;;;18.17;2.43;;;7.80;99.90;;;;;;5047973;28;20212;-67
2023/04/13 02:15:25;;;;;;;12.20;2.30;;;8.00;99.90;;;;;;5053708;28;20219;-67
2023/04/13 02:17:51;;;;;;;8.07;1.40;;;7.90;99.90;;;;;;5054171;28;20717;-67
2023/04/13 02:20:17;;;;;;;10.73;1.67;;;7.80;99.90;;;;;;5053679;28;20169;-68
2023/04/13 02:22:44;;;;;;;16.73;2.43;;;;;;;;;;5052063;28;20177;-67
2023/04/13 02:25:11;;;;;;;10.53;2.20;;;7.70;99.90;;;;;;5053738;28;20181;-68
2023/04/13 02:27:37;;;;;;;18.90;2.47;;;7.60;99.90;;;;;;5049068;28;20201;-68
2023/04/13 02:30:05;;;;;;;16.03;2.30;;;7.40;99.90;;;;;;5043712;28;20191;-68
2023/04/13 02:32:31;;;;;;;16.60;2.33;;;7.60;99.90;;;;;;5050115;28;20581;-68
2023/04/13 02:34:58;;;;;;;11.90;2.13;;;7.40;99.90;;;;;;5052960;28;20223;-67
2023/04/13 02:37:24;;;;;;;16.20;2.60;;;7.40;99.90;;;;;;5051087;28;20201;-66
2023/04/13 02:39:50;;;;;;;15.50;2.10;;;7.50;99.90;;;;;;5048778;28;20174;-67
2023/04/13 02:42:16;;;;;;;10.67;2.13;;;7.30;99.90;;;;;;5049936;28;20203;-66
2023/04/13 02:44:42;;;;;;;19.23;2.30;;;7.30;99.90;;;;;;5045495;28;20192;-67
2023/04/13 02:47:08;;;;;;;21.47;2.90;;;7.60;99.90;;;;;;5046590;28;20182;-66
2023/04/13 02:49:34;;;;;;;18.23;2.70;;;7.50;99.90;;;;;;5053120;28;20193;-66
2023/04/13 02:52:00;;;;;;;17.93;2.33;;;;;;;;;;5046799;28;20261;-66
2023/04/13 02:54:26;;;;;;;15.60;2.43;;;7.60;99.90;;;;;;5053511;28;20235;-66
2023/04/13 02:56:52;;;;;;;16.87;2.70;;;7.60;99.90;;;;;;5051635;28;20811;-66
2023/04/13 02:59:17;;;;;;;22.73;2.67;;;7.70;99.90;;;;;;5051749;28;20243;-66
2023/04/13 03:01:44;;;;;;;15.73;2.50;;;7.60;99.90;;;;;;5050943;28;20176;-65
2023/04/13 03:04:10;;;;;;;20.33;2.63;;;;;;;;;;5052428;28;20212;-65
2023/04/13 03:06:36;;;;;;;16.43;2.63;;;;;;;;;;5052085;28;20717;-66
2023/04/13 03:09:03;;;;;;;11.70;2.77;;;7.60;99.90;;;;;;5052485;28;20227;-67
2023/04/13 03:11:29;;;;;;;13.30;2.30;;;7.40;99.90;;;;;;5053200;28;20181;-66
2023/04/13 03:13:57;;;;;;;17.10;2.77;;;8.20;99.90;;;;;;5050301;28;20580;-66
2023/04/13 03:16:23;;;;;;;22.17;3.20;;;;;;;;;;5053196;28;20199;-68
2023/04/13 03:18:50;;;;;;;17.03;2.70;;;7.70;99.90;;;;;;5051766;28;20586;-67
2023/04/13 03:21:15;;;;;;;19.17;2.60;;;7.70;99.90;;;;;;5051712;28;20219;-68
2023/04/13 03:23:42;;;;;;;15.53;2.53;;;7.70;99.90;;;;;;5051144;28;20691;-68
2023/04/13 03:26:07;;;;;;;17.27;2.40;;;7.70;99.90;;;;;;5049728;28;20189;-69
2023/04/13 03:28:33;;;;;;;17.27;2.80;;;;;;;;;;5050201;28;20303;-67
2023/04/13 03:30:59;;;;;;;14.60;2.97;;;8.00;99.90;;;;;;5050369;28;20663;-67
2023/04/13 03:33:25;;;;;;;16.73;1.80;;;;;;;;;;5051322;28;20230;-68
2023/04/13 03:35:51;;;;;;;12.50;2.17;;;;;;;;;;5051049;28;20193;-69
2023/04/13 03:38:17;;;;;;;16.90;3.00;;;7.60;99.90;;;;;;5048890;28;20552;-68
2023/04/13 03:40:43;;;;;;;13.40;2.43;;;;;;;;;;5050440;28;20185;-68
2023/04/13 03:43:09;;;;;;;20.40;2.93;;;;;;;;;;5050811;28;20181;-68
2023/04/13 03:45:35;;;;;;;15.33;2.20;;;;;;;;;;5047670;28;20783;-69
2023/04/13 03:48:00;;;;;;;15.43;2.83;;;7.40;99.90;;;;;;5050470;28;20233;-68
2023/04/13 03:50:27;;;;;;;25.77;2.60;;;7.40;99.90;;;;;;5051318;28;20169;-68
2023/04/13 03:52:53;;;;;;;18.67;2.67;;;7.40;99.90;;;;;;5049737;28;20185;-69
2023/04/13 03:55:18;;;;;;;18.60;2.73;;;7.30;99.90;;;;;;5050926;28;20267;-68
2023/04/13 03:57:44;;;;;;;20.77;3.07;;;;;;;;;;5045376;28;20232;-68
2023/04/13 04:00:12;;;;;;;15.47;2.97;;;7.20;99.90;;;;;;5050932;28;20181;-68
2023/04/13 04:02:39;;;;;;;17.50;2.33;;;7.30;99.90;;;;;;5049058;28;20220;-67
2023/04/13 04:05:05;;;;;;;25.60;3.00;;;7.30;99.90;;;;;;5048680;28;20165;-67
2023/04/13 04:07:30;;;;;;;12.50;2.70;;;7.20;99.90;;;;;;5043426;28;20190;-67
2023/04/13 04:09:56;;;;;;;24.23;2.97;;;7.40;99.90;;;;;;5050902;28;20166;-68
2023/04/13 04:12:22;;;;;;;27.70;2.93;;;7.00;99.90;;;;;;5048756;28;20680;-68
2023/04/13 04:14:47;;;;;;;18.83;2.40;;;7.20;99.90;;;;;;5041337;28;20178;-69
2023/04/13 04:17:13;;;;;;;18.03;2.67;;;7.20;99.90;;;;;;5042903;28;20208;-69
2023/04/13 04:19:38;;;;;;;16.93;3.03;;;7.30;99.90;;;;;;5048753;28;20257;-68
2023/04/13 04:22:05;;;;;;;16.97;2.87;;;7.20;99.90;;;;;;5046394;28;20193;-68
2023/04/13 04:24:32;;;;;;;16.77;2.57;;;;;;;;;;5050245;28;20651;-67
2023/04/13 04:26:59;;;;;;;19.63;3.70;;;7.30;99.90;;;;;;5051116;28;20822;-67
2023/04/13 04:29:33;;;;;;;28.67;4.10;;;7.10;99.90;;;;;;5046597;28;20181;-68
2023/04/13 04:32:04;;;;;;;17.97;2.70;;;7.10;99.90;;;;;;5047102;28;20240;-67
2023/04/13 04:34:30;;;;;;;19.50;2.60;;;;;;;;;;5042245;28;20196;-67
2023/04/13 04:36:57;;;;;;;23.30;3.33;;;7.00;99.90;;;;;;5046363;28;20182;-67
2023/04/13 04:39:22;;;;;;;20.27;2.60;;;7.20;99.90;;;;;;5047791;28;20557;-68
2023/04/13 04:41:53;;;;;;;24.27;4.00;;;7.20;99.90;;;;;;5044481;28;20177;-67
2023/04/13 04:44:29;;;;;;;21.93;2.87;;;7.30;99.90;;;;;;5049200;28;20313;-69
2023/04/13 04:46:58;;;;;;;22.67;2.67;;;7.00;99.90;;;;;;5043598;28;20169;-69
2023/04/13 04:49:26;;;;;;;19.10;3.67;;;7.20;99.90;;;;;;5049656;28;20185;-69
2023/04/13 04:51:53;;;;;;;22.63;3.27;;;7.20;99.90;;;;;;5039275;28;20173;-68
2023/04/13 04:54:20;;;;;;;26.53;3.30;;;7.20;99.90;;;;;;5050819;28;20659;-67
2023/04/13 04:56:47;;;;;;;25.47;3.60;;;7.10;99.90;;;;;;5050177;28;20177;-70
2023/04/13 04:59:12;;;;;;;27.13;3.67;;;7.30;99.90;;;;;;5050610;28;20209;-69
2023/04/13 05:01:39;;;;;;;22.30;3.40;;;7.20;99.90;;;;;;5047805;28;20193;-67
2023/04/13 05:04:05;;;;;;;15.43;2.97;;;7.10;99.90;;;;;;5049175;28;20173;-68
2023/04/13 05:06:31;;;;;;;18.57;2.57;;;7.10;99.90;;;;;;5049079;28;20197;-68
2023/04/13 05:08:58;;;;;;;27.83;3.47;;;7.20;99.90;;;;;;5050451;28;20169;-67
2023/04/13 05:11:25;;;;;;;27.40;2.67;;;7.00;99.90;;;;;;5049305;28;20239;-67
2023/04/13 05:13:51;;;;;;;17.07;2.90;;;7.00;99.90;;;;;;5049843;28;20173;-68
2023/04/13 05:16:17;;;;;;;22.27;3.10;;;7.00;99.90;;;;;;5050504;28;20706;-67
2023/04/13 05:18:46;;;;;;;29.27;3.60;;;7.10;99.90;;;;;;5050216;28;20209;-67
2023/04/13 05:21:13;;;;;;;32.73;3.33;;;6.90;99.90;;;;;;5050723;28;20209;-67
2023/04/13 05:23:40;;;;;;;27.70;3.43;;;7.10;99.90;;;;;;5050795;28;20235;-67
2023/04/13 05:26:08;;;;;;;18.33;2.67;;;7.00;99.90;;;;;;5050595;28;20243;-67
2023/04/13 05:28:34;;;;;;;21.43;3.27;;;7.10;99.90;;;;;;5049726;28;20248;-68
2023/04/13 05:31:03;;;;;;;25.03;3.20;;;7.10;99.90;;;;;;5050559;28;20176;-68
2023/04/13 05:33:29;;;;;;;24.43;3.47;;;7.10;99.90;;;;;;5049553;28;20577;-68
2023/04/13 05:35:55;;;;;;;27.23;2.93;;;7.10;99.90;;;;;;5049655;28;20192;-67
2023/04/13 05:38:21;;;;;;;28.53;3.37;;;7.10;99.90;;;;;;5047487;28;20220;-68
2023/04/13 05:40:47;;;;;;;17.97;3.03;;;7.10;99.90;;;;;;5047488;28;20675;-68
2023/04/13 05:43:13;;;;;;;14.30;2.60;;;7.10;99.90;;;;;;5046027;28;20177;-68
2023/04/13 05:45:39;;;;;;;25.10;3.10;;;7.10;99.90;;;;;;5050520;28;20184;-67
2023/04/13 05:48:05;;;;;;;19.63;2.87;;;7.10;99.90;;;;;;5047892;28;20181;-68
2023/04/13 05:50:30;;;;;;;19.17;2.93;;;6.90;99.90;;;;;;5048959;28;20612;-67
2023/04/13 05:52:56;;;;;;;17.70;2.90;;;7.10;99.90;;;;;;5048950;28;20772;-68
2023/04/13 05:55:23;;;;;;;26.53;2.87;;;;;;;;;;5048241;28;20632;-67
2023/04/13 05:57:51;;;;;;;20.57;2.37;;;7.20;99.90;;;;;;5046013;28;20220;-67
2023/04/13 06:00:20;;;;;;;17.17;2.33;;;7.30;99.90;;;;;;5048705;28;20228;-67
2023/04/13 06:02:47;;;;;;;13.90;2.67;;;7.40;99.90;;;;;;5039135;28;20235;-67
2023/04/13 06:05:14;;;;;;;15.90;2.40;;;7.40;99.90;;;;;;5048985;28;20185;-68
2023/04/13 06:07:43;;;;;;;17.77;2.47;;;7.50;99.90;;;;;;5044519;28;20180;-67
2023/04/13 06:10:09;;;;;;;18.03;2.60;;;7.80;99.90;;;;;;5044717;28;20177;-67
2023/04/13 06:12:35;;;;;;;12.67;2.23;;;7.50;99.90;;;;;;5037475;28;20196;-67
2023/04/13 06:15:01;;;;;;;17.93;2.57;;;7.50;99.90;;;;;;5044447;28;20594;-67
2023/04/13 06:17:26;;;;;;;19.07;2.67;;;7.70;99.90;;;;;;5046592;28;20250;-67
2023/04/13 06:19:53;;;;;;;18.10;2.87;;;7.60;99.90;;;;;;5043364;28;20177;-67
2023/04/13 06:22:19;;;;;;;15.87;2.33;;;7.60;99.90;;;;;;5048077;28;20866;-70
2023/04/13 06:24:45;;;;;;;16.77;2.73;;;;;;;;;;5049268;28;20180;-70
2023/04/13 06:27:11;;;;;;;23.10;2.47;;;7.90;99.90;;;;;;5047657;28;20185;-70
2023/04/13 06:29:37;;;;;;;18.63;2.53;;;7.40;99.90;;;;;;5043180;28;20219;-70
2023/04/13 06:32:03;;;;;;;17.03;2.43;;;7.80;99.90;;;;;;5035014;28;20244;-70
2023/04/13 06:34:29;;;;;;;12.77;1.90;;;7.80;99.90;;;;;;5042458;28;20241;-70
2023/04/13 06:36:56;;;;;;;32.10;2.90;;;7.60;99.90;;;;;;5049689;28;20271;-70
2023/04/13 06:39:22;;;;;;;16.37;2.40;;;7.90;99.90;;;;;;5048776;28;20647;-70
2023/04/13 06:41:47;;;;;;;14.93;2.37;;;8.10;99.90;;;;;;5048268;28;20200;-69
2023/04/13 06:44:13;;;;;;;13.60;2.27;;;7.80;99.90;;;;;;5045410;28;20196;-73
2023/04/13 06:46:39;;;;;;;20.07;2.87;;;8.00;99.90;;;;;;5044873;28;20181;-75
2023/04/13 06:49:05;;;;;;;14.67;2.27;;;8.20;99.90;;;;;;5048643;28;20280;-76
2023/04/13 06:51:30;;;;;;;20.33;2.17;;;8.20;99.90;;;;;;5048848;28;20185;-77
2023/04/13 06:53:56;;;;;;;19.47;2.40;;;8.40;99.90;;;;;;5048599;28;20199;-76
2023/04/13 06:56:22;;;;;;;11.93;2.33;;;8.20;99.90;;;;;;5049294;28;20178;-74
2023/04/13 06:58:47;;;;;;;14.57;2.07;;;8.30;99.90;;;;;;5049358;28;20225;-74
2023/04/13 07:01:14;;;;;;;20.67;2.60;;;8.30;99.90;;;;;;5052078;28;20176;-73
2023/04/13 07:03:40;;;;;;;18.77;2.37;;;8.40;99.90;;;;;;5052231;28;20181;-73
2023/04/13 07:06:07;;;;;;;16.97;2.00;;;8.30;99.90;;;;;;5047033;28;20196;-73
2023/04/13 07:08:35;;;;;;;18.83;2.60;;;8.30;99.90;;;;;;5049031;28;20177;-74
2023/04/13 07:11:01;;;;;;;15.73;2.40;;;8.50;99.90;;;;;;5052516;28;20185;-73
2023/04/13 07:13:27;;;;;;;10.27;1.37;;;8.40;99.90;;;;;;5052129;28;20584;-75
2023/04/13 07:15:53;;;;;;;14.37;1.93;;;8.50;99.90;;;;;;5053036;28;20211;-75
2023/04/13 07:18:18;;;;;;;15.37;2.93;;;8.50;99.90;;;;;;5052523;28;20213;-74
2023/04/13 07:20:46;;;;;;;28.00;2.47;;;8.60;99.90;;;;;;5051633;28;20212;-74
2023/04/13 07:23:11;;;;;;;13.70;2.33;;;8.60;99.90;;;;;;5052542;28;20185;-74
2023/04/13 07:25:37;;;;;;;14.33;2.07;;;8.60;99.90;;;;;;5047233;28;20207;-74
2023/04/13 07:28:03;;;;;;;18.33;2.13;;;8.50;99.90;;;;;;5050742;28;20181;-73
2023/04/13 07:30:29;;;;;;;15.60;1.60;;;8.80;99.90;;;;;;5051453;28;20185;-72
2023/04/13 07:32:55;;;;;;;9.13;1.53;;;8.80;99.90;;;;;;5052227;28;20181;-72
2023/04/13 07:35:21;;;;;;;19.10;2.17;;;9.00;99.90;;;;;;5050509;28;20652;-72
2023/04/13 07:37:48;;;;;;;18.37;2.60;;;8.90;99.90;;;;;;5052488;28;20212;-72
2023/04/13 07:40:17;;;;;;;25.83;2.60;;;9.00;99.90;;;;;;5051902;28;20181;-71
2023/04/13 07:42:46;;;;;;;19.53;2.17;;;;;;;;;;5051037;28;20185;-72
2023/04/13 07:45:11;;;;;;;11.53;2.33;;;9.10;99.90;;;;;;5052107;28;20179;-73
2023/04/13 07:47:37;;;;;;;13.00;2.10;;;8.80;99.90;;;;;;5052453;28;20256;-73
2023/04/13 07:50:05;;;;;;;8.93;1.50;;;9.40;99.90;;;;;;5051252;28;20595;-69
2023/04/13 07:52:30;;;;;;;10.90;1.37;;;9.10;99.90;;;;;;5051601;28;20180;-71
2023/04/13 07:54:56;;;;;;;23.20;2.63;;;9.20;99.90;;;;;;5051170;28;20679;-71
2023/04/13 07:57:21;;;;;;;22.93;2.13;;;9.20;99.90;;;;;;5050798;28;20208;-70
2023/04/13 07:59:48;;;;;;;11.30;1.77;;;;;;;;;;5050245;28;20177;-69
2023/04/13 08:02:15;;;;;;;16.57;2.13;;;9.40;99.90;;;;;;5051971;28;20189;-71
2023/04/13 08:04:41;;;;;;;9.93;1.37;;;9.50;99.90;;;;;;5052459;28;20188;-71
2023/04/13 08:07:06;;;;;;;12.00;1.80;;;9.50;99.90;;;;;;5051417;28;20260;-71
2023/04/13 08:09:37;;;;;;;15.47;1.90;;;9.90;99.90;;;;;;5049747;28;20218;-71
2023/04/13 08:12:03;;;;;;;13.17;1.93;;;10.10;99.90;;;;;;5051335;28;20173;-70
2023/04/13 08:14:28;;;;;;;16.53;1.90;;;11.60;99.90;;;;;;5051878;28;20176;-70
2023/04/13 08:16:54;;;;;;;13.70;1.63;;;12.40;99.90;;;;;;5046654;28;20671;-70
2023/04/13 08:19:20;;;;;;;9.47;1.40;;;12.50;99.90;;;;;;5048117;28;20200;-69
2023/04/13 08:21:45;;;;;;;9.67;1.50;;;13.00;99.90;;;;;;5038744;28;20222;-72
2023/04/13 08:24:11;;;;;;;8.03;1.70;;;12.90;99.90;;;;;;5049813;28;20192;-69
2023/04/13 08:26:37;;;;;;;9.73;1.57;;;13.30;99.90;;;;;;5051962;28;20681;-69
2023/04/13 08:29:02;;;;;;;11.80;1.88;;;13.80;99.90;;;;;;5050695;28;20725;-70
2023/04/13 08:31:28;;;;;;;116.03;40.75;;;14.20;99.90;;;;;;5048633;28;20181;-71
2023/04/13 08:33:54;;;;;;;13.88;2.40;;;14.90;99.90;;;;;;5051210;28;20264;-70
2023/04/13 08:36:19;;;;;;;17.08;3.83;;;14.10;99.90;;;;;;5050586;28;20204;-71
2023/04/13 08:38:45;;;;;;;15.82;2.45;;;14.40;99.90;;;;;;5050140;28;20220;-70
2023/04/13 08:41:11;;;;;;;12.32;1.83;;;14.40;99.90;;;;;;5045770;28;20170;-70
2023/04/13 08:43:37;;;;;;;8.77;1.80;;;13.80;99.90;;;;;;5050268;28;20644;-70
2023/04/13 08:46:04;;;;;;;12.48;1.92;;;14.30;99.90;;;;;;5051027;28;20264;-70
2023/04/13 08:48:38;;;;;;;12.13;1.98;;;14.70;99.90;;;;;;5049248;28;20173;-70
2023/04/13 08:51:05;;;;;;;12.98;2.17;;;15.70;99.90;;;;;;5048744;28;20181;-70
2023/04/13 08:53:31;;;;;;;7.47;1.45;;;15.60;99.90;;;;;;5051462;28;20342;-70
2023/04/13 08:56:02;;;;;;;6.03;1.50;;;15.40;99.90;;;;;;5050615;28;20620;-70
2023/04/13 08:58:32;;;;;;;7.78;1.50;;;15.70;99.90;;;;;;5042284;28;20290;-69
2023/04/13 09:00:58;;;;;;;10.65;1.70;;;15.80;99.90;;;;;;5043822;28;20170;-70
2023/04/13 09:03:27;;;;;;;11.55;3.05;;;16.00;99.90;;;;;;5048955;28;20196;-71
2023/04/13 09:05:58;;;;;;;9.27;2.00;;;15.30;99.90;;;;;;5050093;28;20185;-70
2023/04/13 09:08:25;;;;;;;13.40;2.03;;;16.10;99.90;;;;;;5041067;28;20262;-69
2023/04/13 09:10:55;;;;;;;11.70;1.85;;;16.00;99.90;;;;;;5050651;28;20227;-70
2023/04/13 09:13:21;;;;;;;7.60;1.60;;;17.10;99.90;;;;;;5050547;28;20176;-70
2023/04/13 09:15:47;;;;;;;8.93;1.70;;;17.10;99.90;;;;;;5044588;28;20291;-71
2023/04/13 09:18:14;;;;;;;11.05;1.85;;;17.10;99.90;;;;;;5044139;28;20786;-70
2023/04/13 09:20:41;;;;;;;8.05;1.65;;;17.00;99.90;;;;;;5048656;28;20625;-71
2023/04/13 09:23:16;;;;;;;7.50;1.90;;;16.20;99.90;;;;;;5048720;28;20204;-70
2023/04/13 09:25:42;;;;;;;11.43;2.03;;;15.40;99.90;;;;;;5049556;28;20173;-70
2023/04/13 09:28:18;;;;;;;14.25;2.10;;;15.40;99.90;;;;;;5049224;28;20177;-69
2023/04/13 09:30:44;;;;;;;9.77;2.10;;;16.30;99.90;;;;;;5049935;28;20231;-70
2023/04/13 09:33:11;;;;;;;9.60;1.90;;;17.50;99.90;;;;;;5050470;28;20185;-70
2023/04/13 09:35:37;;;;;;;7.60;1.83;;;17.60;99.90;;;;;;5049497;28;20174;-71
2023/04/13 09:38:04;;;;;;;10.82;2.03;;;17.50;99.90;;;;;;5036886;28;20205;-70
2023/04/13 09:40:31;;;;;;;7.28;1.80;;;16.40;99.90;;;;;;5044482;28;20201;-70
2023/04/13 09:42:58;;;;;;;8.98;1.85;;;15.60;99.90;;;;;;5048723;28;20617;-70
2023/04/13 09:45:24;;;;;;;8.68;1.42;;;14.90;99.90;;;;;;5047182;28;20165;-70
2023/04/13 09:47:51;;;;;;;6.88;1.80;;;15.10;99.90;;;;;;5042827;28;20183;-70
2023/04/13 09:50:20;;;;;;;8.18;1.75;;;15.20;99.90;;;;;;5044854;28;20184;-69
2023/04/13 09:52:46;;;;;;;8.20;1.63;;;16.00;99.90;;;;;;5043432;28;20188;-69
2023/04/13 09:55:16;;;;;;;11.63;1.60;;;16.30;99.90;;;;;;5043425;28;20184;-69
2023/04/13 09:57:42;;;;;;;13.70;1.90;;;15.70;99.90;;;;;;5048040;28;20214;-69
2023/04/13 10:00:15;;;;;;;7.47;1.50;;;16.90;99.90;;;;;;5048496;28;20181;-69
2023/04/13 10:02:41;;;;;;;11.68;1.98;;;17.80;99.90;;;;;;5043862;28;20177;-70
2023/04/13 10:05:12;;;;;;;5.93;1.27;;;18.10;99.90;;;;;;5037902;28;20180;-70
2023/04/13 10:07:40;;;;;;;10.43;2.03;;;17.00;99.90;;;;;;5047613;28;20207;-70
2023/04/13 10:10:07;;;;;;;7.30;1.77;;;18.10;99.90;;;;;;5050295;28;20181;-70
2023/04/13 10:12:35;;;;;;;11.00;2.00;;;16.60;99.90;;;;;;5048447;28;20181;-69
2023/04/13 10:15:29;;;;;;;9.82;1.90;;;16.70;99.90;;;;;;5049671;28;20174;-70
2023/04/13 10:18:25;;;;;;;5.35;1.50;;;17.00;99.10;;;;;;5034436;28;20248;-71
2023/04/13 10:20:52;;;;;;;14.60;2.17;;;16.80;94.20;;;;;;5049429;28;20685;-70
2023/04/13 10:23:19;;;;;;;9.98;1.90;;;16.40;94.80;;;;;;5048057;28;20197;-70
2023/04/13 10:25:50;;;;;;;6.35;1.77;;;16.40;99.90;;;;;;5049153;28;20260;-69
2023/04/13 10:28:16;;;;;;;7.00;1.70;;;16.20;99.90;;;;;;5048513;28;20179;-71
2023/04/13 10:30:49;;;;;;;11.05;1.70;;;15.90;99.90;;;;;;5047669;28;20298;-70
2023/04/13 10:33:16;;;;;;;7.20;1.17;;;16.20;99.90;;;;;;5044591;28;20181;-70
2023/04/13 10:35:41;;;;;;;7.55;1.17;;;16.00;99.90;;;;;;5041780;28;20194;-70
2023/04/13 10:38:10;;;;;;;5.43;1.38;;;;;;;;;;5053071;28;20217;-70
2023/04/13 10:40:46;;;;;;;5.90;1.45;;;15.80;99.90;;;;;;5053224;28;20176;-71
2023/04/13 10:43:23;;;;;;;5.78;1.55;;;14.80;99.90;;;;;;5049876;28;20172;-70
2023/04/13 10:45:48;;;;;;;9.52;1.63;;;15.80;99.90;;;;;;5053482;28;20270;-70
2023/04/13 10:48:21;;;;;;;7.07;1.20;;;15.80;99.90;;;;;;5053794;28;20185;-70
2023/04/13 10:50:59;;;;;;;4.68;1.13;;;15.00;99.90;;;;;;5053454;28;20181;-70
2023/04/13 10:53:29;;;;;;;8.63;1.67;;;16.70;99.90;;;;;;5051673;28;20174;-70
2023/04/13 10:55:58;;;;;;;5.70;1.55;;;16.30;99.90;;;;;;5053257;28;20303;-70
2023/04/13 10:58:25;;;;;;;8.40;1.67;;;16.50;99.90;;;;;;5053363;28;20775;-69
2023/04/13 11:00:51;;;;;;;5.97;1.30;;;17.30;99.90;;;;;;5051792;28;20200;-71
2023/04/13 11:03:17;;;;;;;6.97;1.67;;;17.20;99.90;;;;;;5053571;28;20177;-70
2023/04/13 11:05:45;;;;;;;9.48;0.95;;;17.50;90.70;;;;;;5053183;28;20188;-70
2023/04/13 11:08:18;;;;;;;4.38;1.00;;;17.00;72.50;;;;;;5053079;28;20652;-70
2023/04/13 11:10:52;;;;;;;8.05;1.58;;;16.80;89.50;;;;;;5053034;28;20223;-70
2023/04/13 11:13:19;;;;;;;6.28;1.50;;;16.50;82.60;;;;;;5052484;28;20242;-71
2023/04/13 11:15:45;;;;;;;5.82;1.95;;;17.10;72.80;;;;;;5053355;28;20185;-70
2023/04/13 11:18:11;;;;;;;10.45;1.75;;;17.40;84.60;;;;;;5053164;28;20684;-70
2023/04/13 11:20:38;;;;;;;6.65;1.45;;;17.60;71.90;;;;;;5053353;28;20192;-70
2023/04/13 11:23:14;;;;;;;6.22;1.10;;;17.10;51.70;;;;;;5052798;28;20181;-70
2023/04/13 11:26:13;;;;;;;7.35;1.10;;;16.70;56.00;;;;;;5053170;28;20226;-71
2023/04/13 11:28:41;;;;;;;8.57;1.35;;;16.80;47.60;;;;;;5029610;28;20181;-70
2023/04/13 11:31:07;;;;;;;6.35;1.60;;;17.60;32.20;;;;;;5052638;28;20182;-70
2023/04/13 11:33:33;;;;;;;10.73;1.50;;;16.70;52.10;;;;;;5052901;28;20176;-69
2023/04/13 11:36:00;;;;;;;5.65;1.40;;;16.30;82.10;;;;;;5052552;28;20640;-71
2023/04/13 11:38:26;;;;;;;5.47;1.17;;;17.30;59.90;;;;;;5051553;28;20236;-70
2023/04/13 11:40:59;;;;;;;4.38;1.20;;;18.20;37.40;;;;;;5052606;28;20185;-70
2023/04/13 11:43:25;;;;;;;8.40;1.50;;;18.30;39.20;;;;;;5049306;28;20235;-70
2023/04/13 11:45:52;;;;;;;8.15;1.40;;;17.80;68.60;;;;;;5051957;28;20691;-70
2023/04/13 11:48:18;;;;;;;9.40;1.42;;;17.60;59.90;;;;;;5051913;28;20185;-70
2023/04/13 11:50:44;;;;;;;7.05;1.42;;;18.60;57.30;;;;;;5052824;28;20173;-70
2023/04/13 11:53:10;;;;;;;6.05;1.42;;;17.90;38.50;;;;;;5052125;28;20732;-69
2023/04/13 11:55:38;;;;;;;5.57;1.20;;;17.90;49.60;;;;;;5052565;28;20185;-70
2023/04/13 11:58:09;;;;;;;8.63;1.67;;;17.00;51.20;;;;;;5051978;28;20232;-70
2023/04/13 12:00:39;;;;;;;6.43;1.20;;;16.10;90.40;;;;;;5044761;28;20178;-69
2023/04/13 12:03:12;;;;;;;7.30;1.27;;;15.60;99.90;;;;;;5052239;28;20181;-70
2023/04/13 12:05:38;;;;;;;9.85;1.15;;;14.80;99.90;;;;;;5044851;28;20680;-69
2023/04/13 12:08:03;;;;;;;9.65;1.33;;;15.30;99.90;;;;;;5052118;28;20406;-69
2023/04/13 12:10:31;;;;;;;2.83;0.60;;;16.20;99.90;;;;;;5052208;28;20188;-71
2023/04/13 12:13:02;;;;;;;5.35;1.00;;;16.60;99.90;;;;;;5051746;28;20213;-70
2023/04/13 12:15:29;;;;;;;4.97;1.10;;;16.80;99.90;;;;;;5052103;28;20188;-71
2023/04/13 12:18:03;;;;;;;8.00;1.20;;;17.10;93.90;;;;;;5051646;28;20232;-70
2023/04/13 12:20:38;;;;;;;11.60;1.48;;;17.70;89.00;;;;;;5052037;28;20676;-70
2023/04/13 12:23:16;;;;;;;6.70;0.80;;;17.00;71.70;;;;;;5051481;28;20195;-70
2023/04/13 12:25:53;;;;;;;4.30;1.20;;;17.10;67.40;;;;;;5044428;28;20185;-70
2023/04/13 12:28:20;;;;;;;3.67;1.00;;;;;;;;;;5050133;28;20185;-70
2023/04/13 12:30:46;;;;;;;7.75;1.20;;;17.90;64.60;;;;;;5050532;28;20635;-70
2023/04/13 12:33:12;;;;;;;4.53;1.13;;;17.60;72.90;;;;;;5051451;28;20192;-69
2023/04/13 12:35:38;;;;;;;4.03;1.20;;;16.80;99.90;;;;;;5051848;28;20658;-70
2023/04/13 12:38:05;;;;;;;4.25;1.10;;;16.70;99.90;;;;;;5051318;28;20231;-70
2023/04/13 12:40:31;;;;;;;6.63;1.02;;;16.20;99.90;;;;;;5051648;28;20192;-70
2023/04/13 12:42:56;;;;;;;4.43;0.85;;;14.20;99.90;;;;;;5050155;28;20650;-70
2023/04/13 12:45:22;;;;;;;1.85;0.80;;;11.90;99.90;;;;;;5050151;28;20210;-69
2023/04/13 12:47:48;;;;;;;8.18;0.90;;;11.80;99.90;;;;;;5051292;28;20227;-69
2023/04/13 12:50:14;;;;;;;5.40;1.10;;;10.70;99.90;;;;;;5051449;28;20177;-69
2023/04/13 12:52:41;;;;;;;4.47;1.07;;;10.50;99.90;;;;;;5051286;28;20200;-68
2023/04/13 12:55:08;;;;;;;6.30;0.93;;;10.40;99.90;;;;;;5051299;28;20197;-69